sensor_id;sensor_type;location;lat;lon;timestamp;P1;durP1;ratioP1;P2;durP2;ratioP2
78618;SDS011;67941;52.506;5.470;2024-02-21T00:01:14;9.25;;;4.95;;
78618;SDS011;67941;52.506;5.470;2024-02-21T00:03:45;12.10;;;4.90;;
78618;SDS011;67941;52.506;5.470;2024-02-21T00:06:14;8.80;;;4.10;;
78618;SDS011;67941;52.506;5.470;2024-02-21T00:08:43;10.10;;;5.40;;
78618;SDS011;67941;52.506;5.470;2024-02-21T00:11:11;10.50;;;5.93;;
78618;SDS011;67941;52.506;5.470;2024-02-21T00:13:40;12.57;;;5.43;;
78618;SDS011;67941;52.506;5.470;2024-02-21T00:16:12;9.77;;;3.60;;
78618;SDS011;67941;52.506;5.470;2024-02-21T00:18:41;11.70;;;3.95;;
78618;SDS011;67941;52.506;5.470;2024-02-21T00:21:10;8.55;;;3.97;;
78618;SDS011;67941;52.506;5.470;2024-02-21T00:23:43;5.72;;;2.95;;
78618;SDS011;67941;52.506;5.470;2024-02-21T00:26:14;5.80;;;2.22;;
78618;SDS011;67941;52.506;5.470;2024-02-21T00:28:46;8.07;;;3.20;;
78618;SDS011;67941;52.506;5.470;2024-02-21T00:31:14;8.95;;;3.83;;
78618;SDS011;67941;52.506;5.470;2024-02-21T00:33:43;11.93;;;3.53;;
78618;SDS011;67941;52.506;5.470;2024-02-21T00:36:12;9.30;;;4.18;;
78618;SDS011;67941;52.506;5.470;2024-02-21T00:38:41;10.38;;;4.88;;
78618;SDS011;67941;52.506;5.470;2024-02-21T00:41:10;9.50;;;3.80;;
78618;SDS011;67941;52.506;5.470;2024-02-21T00:43:39;11.15;;;4.38;;
78618;SDS011;67941;52.506;5.470;2024-02-21T00:46:10;11.15;;;4.35;;
78618;SDS011;67941;52.506;5.470;2024-02-21T00:48:39;8.75;;;3.20;;
78618;SDS011;67941;52.506;5.470;2024-02-21T00:51:08;11.02;;;5.05;;
78618;SDS011;67941;52.506;5.470;2024-02-21T00:53:37;10.00;;;4.55;;
78618;SDS011;67941;52.506;5.470;2024-02-21T00:56:06;8.95;;;3.88;;
78618;SDS011;67941;52.506;5.470;2024-02-21T00:58:34;9.50;;;3.90;;
78618;SDS011;67941;52.506;5.470;2024-02-21T01:01:03;7.65;;;3.15;;
78618;SDS011;67941;52.506;5.470;2024-02-21T01:03:35;9.30;;;2.88;;
78618;SDS011;67941;52.506;5.470;2024-02-21T01:06:22;6.25;;;2.67;;
78618;SDS011;67941;52.506;5.470;2024-02-21T01:08:51;10.27;;;3.63;;
78618;SDS011;67941;52.506;5.470;2024-02-21T01:11:20;7.10;;;2.03;;
78618;SDS011;67941;52.506;5.470;2024-02-21T01:13:49;10.32;;;3.28;;
78618;SDS011;67941;52.506;5.470;2024-02-21T01:16:17;8.00;;;2.88;;
78618;SDS011;67941;52.506;5.470;2024-02-21T01:18:49;6.53;;;2.35;;
78618;SDS011;67941;52.506;5.470;2024-02-21T01:21:18;11.00;;;3.47;;
78618;SDS011;67941;52.506;5.470;2024-02-21T01:23:47;7.25;;;3.35;;
78618;SDS011;67941;52.506;5.470;2024-02-21T01:26:15;6.63;;;2.45;;
78618;SDS011;67941;52.506;5.470;2024-02-21T01:28:44;10.77;;;4.35;;
78618;SDS011;67941;52.506;5.470;2024-02-21T01:31:13;9.90;;;3.45;;
78618;SDS011;67941;52.506;5.470;2024-02-21T01:33:42;9.48;;;3.08;;
78618;SDS011;67941;52.506;5.470;2024-02-21T01:36:13;11.95;;;4.65;;
78618;SDS011;67941;52.506;5.470;2024-02-21T01:38:42;9.63;;;3.75;;
78618;SDS011;67941;52.506;5.470;2024-02-21T01:41:11;12.80;;;3.63;;
78618;SDS011;67941;52.506;5.470;2024-02-21T01:43:40;12.52;;;3.63;;
78618;SDS011;67941;52.506;5.470;2024-02-21T01:46:09;7.68;;;2.85;;
78618;SDS011;67941;52.506;5.470;2024-02-21T01:48:38;7.15;;;2.92;;
78618;SDS011;67941;52.506;5.470;2024-02-21T01:51:07;11.93;;;3.05;;
78618;SDS011;67941;52.506;5.470;2024-02-21T01:53:42;7.97;;;2.70;;
78618;SDS011;67941;52.506;5.470;2024-02-21T01:56:12;7.72;;;1.80;;
78618;SDS011;67941;52.506;5.470;2024-02-21T01:58:42;5.55;;;2.10;;
78618;SDS011;67941;52.506;5.470;2024-02-21T02:01:12;5.78;;;2.08;;
78618;SDS011;67941;52.506;5.470;2024-02-21T02:03:41;7.95;;;2.85;;
78618;SDS011;67941;52.506;5.470;2024-02-21T02:06:10;6.20;;;2.05;;
78618;SDS011;67941;52.506;5.470;2024-02-21T02:08:41;6.13;;;2.92;;
78618;SDS011;67941;52.506;5.470;2024-02-21T02:11:10;6.68;;;2.45;;
78618;SDS011;67941;52.506;5.470;2024-02-21T02:13:42;5.97;;;1.73;;
78618;SDS011;67941;52.506;5.470;2024-02-21T02:16:11;9.65;;;1.80;;
78618;SDS011;67941;52.506;5.470;2024-02-21T02:18:40;5.93;;;2.28;;
78618;SDS011;67941;52.506;5.470;2024-02-21T02:21:10;7.55;;;1.83;;
78618;SDS011;67941;52.506;5.470;2024-02-21T02:23:52;4.25;;;1.35;;
78618;SDS011;67941;52.506;5.470;2024-02-21T02:26:21;3.08;;;1.10;;
78618;SDS011;67941;52.506;5.470;2024-02-21T02:28:50;7.80;;;2.20;;
78618;SDS011;67941;52.506;5.470;2024-02-21T02:31:19;3.20;;;1.25;;
78618;SDS011;67941;52.506;5.470;2024-02-21T02:33:48;3.05;;;1.00;;
78618;SDS011;67941;52.506;5.470;2024-02-21T02:36:16;2.42;;;1.27;;
78618;SDS011;67941;52.506;5.470;2024-02-21T02:38:45;3.22;;;0.90;;
78618;SDS011;67941;52.506;5.470;2024-02-21T02:41:17;6.40;;;0.90;;
78618;SDS011;67941;52.506;5.470;2024-02-21T02:43:45;6.13;;;0.60;;
78618;SDS011;67941;52.506;5.470;2024-02-21T02:46:14;2.00;;;0.70;;
78618;SDS011;67941;52.506;5.470;2024-02-21T02:48:43;5.22;;;0.73;;
78618;SDS011;67941;52.506;5.470;2024-02-21T02:51:12;7.88;;;1.55;;
78618;SDS011;67941;52.506;5.470;2024-02-21T02:53:41;3.15;;;0.50;;
78618;SDS011;67941;52.506;5.470;2024-02-21T02:56:13;4.18;;;0.90;;
78618;SDS011;67941;52.506;5.470;2024-02-21T02:59:04;1.73;;;0.52;;
78618;SDS011;67941;52.506;5.470;2024-02-21T03:01:33;1.38;;;0.57;;
78618;SDS011;67941;52.506;5.470;2024-02-21T03:04:03;4.55;;;1.27;;
78618;SDS011;67941;52.506;5.470;2024-02-21T03:06:32;1.85;;;1.08;;
78618;SDS011;67941;52.506;5.470;2024-02-21T03:09:01;3.13;;;0.65;;
78618;SDS011;67941;52.506;5.470;2024-02-21T03:11:36;5.20;;;0.52;;
78618;SDS011;67941;52.506;5.470;2024-02-21T03:14:06;3.38;;;0.40;;
78618;SDS011;67941;52.506;5.470;2024-02-21T03:16:35;1.67;;;0.30;;
78618;SDS011;67941;52.506;5.470;2024-02-21T03:19:03;6.30;;;1.23;;
78618;SDS011;67941;52.506;5.470;2024-02-21T03:21:32;2.10;;;0.45;;
78618;SDS011;67941;52.506;5.470;2024-02-21T03:24:01;5.43;;;1.38;;
78618;SDS011;67941;52.506;5.470;2024-02-21T03:26:30;2.55;;;0.30;;
78618;SDS011;67941;52.506;5.470;2024-02-21T03:29:03;7.47;;;0.95;;
78618;SDS011;67941;52.506;5.470;2024-02-21T03:31:32;3.22;;;0.40;;
78618;SDS011;67941;52.506;5.470;2024-02-21T03:34:00;7.28;;;0.90;;
78618;SDS011;67941;52.506;5.470;2024-02-21T03:36:29;2.97;;;0.80;;
78618;SDS011;67941;52.506;5.470;2024-02-21T03:38:58;3.80;;;0.75;;
78618;SDS011;67941;52.506;5.470;2024-02-21T03:41:27;4.90;;;1.33;;
78618;SDS011;67941;52.506;5.470;2024-02-21T03:43:56;1.80;;;0.40;;
78618;SDS011;67941;52.506;5.470;2024-02-21T03:46:28;1.65;;;0.70;;
78618;SDS011;67941;52.506;5.470;2024-02-21T03:48:57;6.38;;;1.67;;
78618;SDS011;67941;52.506;5.470;2024-02-21T03:51:26;1.75;;;0.40;;
78618;SDS011;67941;52.506;5.470;2024-02-21T03:53:55;2.58;;;0.57;;
78618;SDS011;67941;52.506;5.470;2024-02-21T03:56:23;4.80;;;1.25;;
78618;SDS011;67941;52.506;5.470;2024-02-21T03:58:52;5.60;;;1.23;;
78618;SDS011;67941;52.506;5.470;2024-02-21T04:01:21;3.13;;;0.88;;
78618;SDS011;67941;52.506;5.470;2024-02-21T04:03:53;4.93;;;0.73;;
78618;SDS011;67941;52.506;5.470;2024-02-21T04:06:22;4.18;;;0.50;;
78618;SDS011;67941;52.506;5.470;2024-02-21T04:08:51;1.38;;;0.20;;
78618;SDS011;67941;52.506;5.470;2024-02-21T04:11:20;2.78;;;1.00;;
78618;SDS011;67941;52.506;5.470;2024-02-21T04:13:49;2.25;;;0.50;;
78618;SDS011;67941;52.506;5.470;2024-02-21T04:16:18;4.13;;;0.40;;
78618;SDS011;67941;52.506;5.470;2024-02-21T04:18:47;4.45;;;0.90;;
78618;SDS011;67941;52.506;5.470;2024-02-21T04:21:18;2.53;;;0.60;;
78618;SDS011;67941;52.506;5.470;2024-02-21T04:23:47;4.68;;;0.93;;
78618;SDS011;67941;52.506;5.470;2024-02-21T04:26:16;5.57;;;1.75;;
78618;SDS011;67941;52.506;5.470;2024-02-21T04:28:45;5.30;;;1.70;;
78618;SDS011;67941;52.506;5.470;2024-02-21T04:31:13;7.60;;;1.13;;
78618;SDS011;67941;52.506;5.470;2024-02-21T04:33:42;2.08;;;1.13;;
78618;SDS011;67941;52.506;5.470;2024-02-21T04:36:11;3.20;;;0.57;;
78618;SDS011;67941;52.506;5.470;2024-02-21T04:38:43;5.03;;;0.90;;
78618;SDS011;67941;52.506;5.470;2024-02-21T04:41:13;3.70;;;0.40;;
78618;SDS011;67941;52.506;5.470;2024-02-21T04:43:41;1.92;;;0.30;;
78618;SDS011;67941;52.506;5.470;2024-02-21T04:46:10;1.50;;;0.70;;
78618;SDS011;67941;52.506;5.470;2024-02-21T04:48:39;6.57;;;0.95;;
78618;SDS011;67941;52.506;5.470;2024-02-21T04:51:08;2.40;;;0.88;;
78618;SDS011;67941;52.506;5.470;2024-02-21T04:53:38;5.45;;;0.90;;
78618;SDS011;67941;52.506;5.470;2024-02-21T04:56:09;3.33;;;0.45;;
78618;SDS011;67941;52.506;5.470;2024-02-21T04:58:38;3.50;;;0.82;;
78618;SDS011;67941;52.506;5.470;2024-02-21T05:01:08;3.42;;;0.75;;
78618;SDS011;67941;52.506;5.470;2024-02-21T05:03:36;4.90;;;0.57;;
78618;SDS011;67941;52.506;5.470;2024-02-21T05:06:07;3.17;;;0.43;;
78618;SDS011;67941;52.506;5.470;2024-02-21T05:08:36;4.65;;;0.80;;
78618;SDS011;67941;52.506;5.470;2024-02-21T05:11:04;3.65;;;0.70;;
78618;SDS011;67941;52.506;5.470;2024-02-21T05:13:36;2.80;;;0.93;;
78618;SDS011;67941;52.506;5.470;2024-02-21T05:16:05;5.32;;;1.10;;
78618;SDS011;67941;52.506;5.470;2024-02-21T05:18:34;1.77;;;0.70;;
78618;SDS011;67941;52.506;5.470;2024-02-21T05:21:03;1.52;;;0.73;;
78618;SDS011;67941;52.506;5.470;2024-02-21T05:23:32;5.25;;;0.88;;
78618;SDS011;67941;52.506;5.470;2024-02-21T05:26:01;5.80;;;1.20;;
78618;SDS011;67941;52.506;5.470;2024-02-21T05:28:30;7.38;;;0.65;;
78618;SDS011;67941;52.506;5.470;2024-02-21T05:31:02;2.22;;;0.60;;
78618;SDS011;67941;52.506;5.470;2024-02-21T05:33:31;3.15;;;0.43;;
78618;SDS011;67941;52.506;5.470;2024-02-21T05:36:00;2.83;;;1.02;;
78618;SDS011;67941;52.506;5.470;2024-02-21T05:38:28;2.25;;;0.85;;
78618;SDS011;67941;52.506;5.470;2024-02-21T05:40:57;4.50;;;0.98;;
78618;SDS011;67941;52.506;5.470;2024-02-21T05:43:26;4.80;;;1.42;;
78618;SDS011;67941;52.506;5.470;2024-02-21T05:45:55;4.95;;;2.30;;
78618;SDS011;67941;52.506;5.470;2024-02-21T05:48:26;5.63;;;1.55;;
78618;SDS011;67941;52.506;5.470;2024-02-21T05:50:55;4.95;;;0.90;;
78618;SDS011;67941;52.506;5.470;2024-02-21T05:53:24;5.25;;;1.33;;
78618;SDS011;67941;52.506;5.470;2024-02-21T05:55:53;2.13;;;0.93;;
78618;SDS011;67941;52.506;5.470;2024-02-21T05:58:21;5.47;;;0.95;;
78618;SDS011;67941;52.506;5.470;2024-02-21T06:00:50;1.48;;;0.43;;
78618;SDS011;67941;52.506;5.470;2024-02-21T06:03:19;2.28;;;1.10;;
78618;SDS011;67941;52.506;5.470;2024-02-21T06:05:51;4.20;;;1.15;;
78618;SDS011;67941;52.506;5.470;2024-02-21T06:08:19;2.22;;;0.85;;
78618;SDS011;67941;52.506;5.470;2024-02-21T06:10:48;3.67;;;0.88;;
78618;SDS011;67941;52.506;5.470;2024-02-21T06:13:19;2.25;;;1.10;;
78618;SDS011;67941;52.506;5.470;2024-02-21T06:15:49;4.47;;;0.93;;
78618;SDS011;67941;52.506;5.470;2024-02-21T06:18:18;4.32;;;0.68;;
78618;SDS011;67941;52.506;5.470;2024-02-21T06:20:47;3.95;;;1.48;;
78618;SDS011;67941;52.506;5.470;2024-02-21T06:23:19;4.28;;;1.58;;
78618;SDS011;67941;52.506;5.470;2024-02-21T06:25:47;2.90;;;0.80;;
78618;SDS011;67941;52.506;5.470;2024-02-21T06:28:16;3.80;;;1.42;;
78618;SDS011;67941;52.506;5.470;2024-02-21T06:30:46;5.18;;;2.08;;
78618;SDS011;67941;52.506;5.470;2024-02-21T06:33:14;6.68;;;2.53;;
78618;SDS011;67941;52.506;5.470;2024-02-21T06:35:43;5.18;;;2.00;;
78618;SDS011;67941;52.506;5.470;2024-02-21T06:38:15;4.90;;;1.05;;
78618;SDS011;67941;52.506;5.470;2024-02-21T06:40:44;6.78;;;2.13;;
78618;SDS011;67941;52.506;5.470;2024-02-21T06:43:16;3.70;;;1.25;;
78618;SDS011;67941;52.506;5.470;2024-02-21T06:45:46;5.70;;;1.63;;
78618;SDS011;67941;52.506;5.470;2024-02-21T06:48:16;3.60;;;1.70;;
78618;SDS011;67941;52.506;5.470;2024-02-21T06:50:46;8.70;;;2.42;;
78618;SDS011;67941;52.506;5.470;2024-02-21T06:53:17;4.97;;;1.95;;
78618;SDS011;67941;52.506;5.470;2024-02-21T06:55:46;4.15;;;1.92;;
78618;SDS011;67941;52.506;5.470;2024-02-21T06:58:15;4.40;;;1.45;;
78618;SDS011;67941;52.506;5.470;2024-02-21T07:00:44;3.75;;;1.40;;
78618;SDS011;67941;52.506;5.470;2024-02-21T07:03:13;4.22;;;1.65;;
78618;SDS011;67941;52.506;5.470;2024-02-21T07:05:41;5.40;;;2.22;;
78618;SDS011;67941;52.506;5.470;2024-02-21T07:08:10;4.60;;;1.65;;
78618;SDS011;67941;52.506;5.470;2024-02-21T07:10:42;3.35;;;1.92;;
78618;SDS011;67941;52.506;5.470;2024-02-21T07:13:10;4.93;;;2.00;;
78618;SDS011;67941;52.506;5.470;2024-02-21T07:15:41;4.10;;;1.70;;
78618;SDS011;67941;52.506;5.470;2024-02-21T07:18:10;7.10;;;2.67;;
78618;SDS011;67941;52.506;5.470;2024-02-21T07:20:39;7.78;;;2.38;;
78618;SDS011;67941;52.506;5.470;2024-02-21T07:23:08;6.57;;;2.00;;
78618;SDS011;67941;52.506;5.470;2024-02-21T07:25:37;4.53;;;1.85;;
78618;SDS011;67941;52.506;5.470;2024-02-21T07:28:10;4.72;;;2.10;;
78618;SDS011;67941;52.506;5.470;2024-02-21T07:30:39;7.55;;;1.80;;
78618;SDS011;67941;52.506;5.470;2024-02-21T07:33:08;9.00;;;3.20;;
78618;SDS011;67941;52.506;5.470;2024-02-21T07:35:36;9.15;;;2.67;;
78618;SDS011;67941;52.506;5.470;2024-02-21T07:38:06;2.90;;;1.45;;
78618;SDS011;67941;52.506;5.470;2024-02-21T07:40:37;4.80;;;2.40;;
78618;SDS011;67941;52.506;5.470;2024-02-21T07:43:07;6.38;;;2.35;;
78618;SDS011;67941;52.506;5.470;2024-02-21T07:45:38;7.68;;;2.55;;
78618;SDS011;67941;52.506;5.470;2024-02-21T07:48:07;5.63;;;1.88;;
78618;SDS011;67941;52.506;5.470;2024-02-21T07:50:36;6.15;;;2.33;;
78618;SDS011;67941;52.506;5.470;2024-02-21T07:53:05;6.82;;;2.72;;
78618;SDS011;67941;52.506;5.470;2024-02-21T07:55:34;6.25;;;2.25;;
78618;SDS011;67941;52.506;5.470;2024-02-21T07:58:03;7.07;;;2.45;;
78618;SDS011;67941;52.506;5.470;2024-02-21T08:00:34;5.70;;;2.58;;
78618;SDS011;67941;52.506;5.470;2024-02-21T08:03:03;5.55;;;1.67;;
78618;SDS011;67941;52.506;5.470;2024-02-21T08:05:33;4.95;;;2.38;;
78618;SDS011;67941;52.506;5.470;2024-02-21T08:08:03;7.18;;;2.78;;
78618;SDS011;67941;52.506;5.470;2024-02-21T08:10:32;3.42;;;1.60;;
78618;SDS011;67941;52.506;5.470;2024-02-21T08:13:02;6.00;;;2.15;;
78618;SDS011;67941;52.506;5.470;2024-02-21T08:15:36;6.38;;;2.20;;
78618;SDS011;67941;52.506;5.470;2024-02-21T08:18:06;4.65;;;1.48;;
78618;SDS011;67941;52.506;5.470;2024-02-21T08:20:36;7.47;;;2.13;;
78618;SDS011;67941;52.506;5.470;2024-02-21T08:23:06;4.50;;;2.13;;
78618;SDS011;67941;52.506;5.470;2024-02-21T08:25:35;5.18;;;1.63;;
78618;SDS011;67941;52.506;5.470;2024-02-21T08:28:05;4.65;;;2.17;;
78618;SDS011;67941;52.506;5.470;2024-02-21T08:30:36;10.50;;;2.78;;
78618;SDS011;67941;52.506;5.470;2024-02-21T08:33:05;6.03;;;2.20;;
78618;SDS011;67941;52.506;5.470;2024-02-21T08:35:34;5.57;;;2.15;;
78618;SDS011;67941;52.506;5.470;2024-02-21T08:38:03;4.20;;;1.85;;
78618;SDS011;67941;52.506;5.470;2024-02-21T08:40:32;7.65;;;3.13;;
78618;SDS011;67941;52.506;5.470;2024-02-21T08:43:02;6.00;;;2.60;;
78618;SDS011;67941;52.506;5.470;2024-02-21T08:45:31;4.13;;;1.63;;
78618;SDS011;67941;52.506;5.470;2024-02-21T08:48:03;7.35;;;2.70;;
78618;SDS011;67941;52.506;5.470;2024-02-21T08:50:33;4.38;;;1.67;;
78618;SDS011;67941;52.506;5.470;2024-02-21T08:53:03;5.65;;;2.50;;
78618;SDS011;67941;52.506;5.470;2024-02-21T08:55:32;4.50;;;2.25;;
78618;SDS011;67941;52.506;5.470;2024-02-21T08:58:01;6.93;;;3.28;;
78618;SDS011;67941;52.506;5.470;2024-02-21T09:00:30;6.50;;;2.75;;
78618;SDS011;67941;52.506;5.470;2024-02-21T09:02:59;6.60;;;2.75;;
78618;SDS011;67941;52.506;5.470;2024-02-21T09:05:30;6.05;;;2.70;;
78618;SDS011;67941;52.506;5.470;2024-02-21T09:10:29;6.97;;;3.03;;
78618;SDS011;67941;52.506;5.470;2024-02-21T09:12:58;5.03;;;2.65;;
78618;SDS011;67941;52.506;5.470;2024-02-21T09:15:29;5.10;;;2.53;;
78618;SDS011;67941;52.506;5.470;2024-02-21T09:17:57;6.15;;;2.60;;
78618;SDS011;67941;52.506;5.470;2024-02-21T09:20:26;13.23;;;3.85;;
78618;SDS011;67941;52.506;5.470;2024-02-21T09:22:58;7.05;;;2.72;;
78618;SDS011;67941;52.506;5.470;2024-02-21T09:25:27;6.22;;;2.90;;
78618;SDS011;67941;52.506;5.470;2024-02-21T09:27:57;6.10;;;2.72;;
78618;SDS011;67941;52.506;5.470;2024-02-21T09:30:26;5.07;;;1.52;;
78618;SDS011;67941;52.506;5.470;2024-02-21T09:32:55;8.35;;;2.97;;
78618;SDS011;67941;52.506;5.470;2024-02-21T09:35:25;6.93;;;2.72;;
78618;SDS011;67941;52.506;5.470;2024-02-21T09:37:56;7.03;;;2.15;;
78618;SDS011;67941;52.506;5.470;2024-02-21T09:40:25;4.93;;;2.20;;
78618;SDS011;67941;52.506;5.470;2024-02-21T09:42:57;9.35;;;3.33;;
78618;SDS011;67941;52.506;5.470;2024-02-21T09:45:33;4.57;;;1.77;;
78618;SDS011;67941;52.506;5.470;2024-02-21T09:50:55;4.90;;;2.17;;
78618;SDS011;67941;52.506;5.470;2024-02-21T09:53:28;6.03;;;2.65;;
78618;SDS011;67941;52.506;5.470;2024-02-21T09:55:58;6.13;;;2.63;;
78618;SDS011;67941;52.506;5.470;2024-02-21T09:58:29;5.28;;;2.13;;
78618;SDS011;67941;52.506;5.470;2024-02-21T10:00:59;6.05;;;2.30;;
78618;SDS011;67941;52.506;5.470;2024-02-21T10:03:29;6.20;;;1.85;;
78618;SDS011;67941;52.506;5.470;2024-02-21T10:05:58;3.80;;;1.63;;
78618;SDS011;67941;52.506;5.470;2024-02-21T10:08:30;6.35;;;2.47;;
78618;SDS011;67941;52.506;5.470;2024-02-21T10:10:59;7.13;;;2.03;;
78618;SDS011;67941;52.506;5.470;2024-02-21T10:13:28;7.32;;;2.58;;
78618;SDS011;67941;52.506;5.470;2024-02-21T10:16:01;4.65;;;2.28;;
78618;SDS011;67941;52.506;5.470;2024-02-21T10:18:30;7.20;;;2.63;;
78618;SDS011;67941;52.506;5.470;2024-02-21T10:21:00;6.43;;;2.20;;
78618;SDS011;67941;52.506;5.470;2024-02-21T10:23:40;6.38;;;2.17;;
78618;SDS011;67941;52.506;5.470;2024-02-21T10:26:09;4.57;;;1.60;;
78618;SDS011;67941;52.506;5.470;2024-02-21T10:28:38;4.80;;;2.47;;
78618;SDS011;67941;52.506;5.470;2024-02-21T10:31:10;7.10;;;2.55;;
78618;SDS011;67941;52.506;5.470;2024-02-21T10:33:40;5.60;;;2.67;;
78618;SDS011;67941;52.506;5.470;2024-02-21T10:36:09;5.00;;;2.75;;
78618;SDS011;67941;52.506;5.470;2024-02-21T10:38:42;6.28;;;2.22;;
78618;SDS011;67941;52.506;5.470;2024-02-21T10:41:11;6.03;;;1.65;;
78618;SDS011;67941;52.506;5.470;2024-02-21T10:43:42;7.78;;;2.63;;
78618;SDS011;67941;52.506;5.470;2024-02-21T10:46:15;5.78;;;2.22;;
78618;SDS011;67941;52.506;5.470;2024-02-21T10:48:47;6.30;;;2.55;;
78618;SDS011;67941;52.506;5.470;2024-02-21T10:51:21;7.00;;;3.00;;
78618;SDS011;67941;52.506;5.470;2024-02-21T10:54:02;6.30;;;3.10;;
78618;SDS011;67941;52.506;5.470;2024-02-21T10:56:38;4.07;;;1.45;;
78618;SDS011;67941;52.506;5.470;2024-02-21T10:59:07;7.05;;;2.90;;
78618;SDS011;67941;52.506;5.470;2024-02-21T11:01:36;5.53;;;1.75;;
78618;SDS011;67941;52.506;5.470;2024-02-21T11:04:06;7.13;;;2.15;;
78618;SDS011;67941;52.506;5.470;2024-02-21T11:06:36;4.50;;;2.20;;
78618;SDS011;67941;52.506;5.470;2024-02-21T11:09:09;3.65;;;1.40;;
78618;SDS011;67941;52.506;5.470;2024-02-21T11:11:39;6.75;;;2.92;;
78618;SDS011;67941;52.506;5.470;2024-02-21T11:14:09;4.20;;;2.20;;
78618;SDS011;67941;52.506;5.470;2024-02-21T11:16:39;4.68;;;1.50;;
78618;SDS011;67941;52.506;5.470;2024-02-21T11:19:10;2.83;;;1.45;;
78618;SDS011;67941;52.506;5.470;2024-02-21T11:21:48;4.32;;;1.05;;
78618;SDS011;67941;52.506;5.470;2024-02-21T11:24:28;4.00;;;1.90;;
78618;SDS011;67941;52.506;5.470;2024-02-21T11:27:07;3.78;;;1.40;;
78618;SDS011;67941;52.506;5.470;2024-02-21T11:29:40;3.25;;;1.30;;
78618;SDS011;67941;52.506;5.470;2024-02-21T11:32:11;3.72;;;1.38;;
78618;SDS011;67941;52.506;5.470;2024-02-21T11:34:52;4.32;;;1.88;;
78618;SDS011;67941;52.506;5.470;2024-02-21T11:37:23;3.13;;;1.63;;
78618;SDS011;67941;52.506;5.470;2024-02-21T11:39:56;3.03;;;1.52;;
78618;SDS011;67941;52.506;5.470;2024-02-21T11:42:25;4.03;;;1.90;;
78618;SDS011;67941;52.506;5.470;2024-02-21T11:44:55;5.72;;;1.80;;
78618;SDS011;67941;52.506;5.470;2024-02-21T11:47:25;4.50;;;1.60;;
78618;SDS011;67941;52.506;5.470;2024-02-21T11:49:56;3.17;;;1.67;;
78618;SDS011;67941;52.506;5.470;2024-02-21T11:52:25;4.32;;;1.48;;
78618;SDS011;67941;52.506;5.470;2024-02-21T11:54:57;3.40;;;1.17;;
78618;SDS011;67941;52.506;5.470;2024-02-21T11:57:30;4.15;;;2.28;;
78618;SDS011;67941;52.506;5.470;2024-02-21T12:00:10;3.08;;;1.40;;
78618;SDS011;67941;52.506;5.470;2024-02-21T12:02:40;3.53;;;1.55;;
78618;SDS011;67941;52.506;5.470;2024-02-21T12:05:09;5.05;;;1.90;;
78618;SDS011;67941;52.506;5.470;2024-02-21T12:07:38;2.58;;;1.52;;
78618;SDS011;67941;52.506;5.470;2024-02-21T12:10:10;2.75;;;1.05;;
78618;SDS011;67941;52.506;5.470;2024-02-21T12:12:40;4.20;;;0.82;;
78618;SDS011;67941;52.506;5.470;2024-02-21T12:15:09;2.17;;;1.20;;
78618;SDS011;67941;52.506;5.470;2024-02-21T12:17:39;3.60;;;1.80;;
78618;SDS011;67941;52.506;5.470;2024-02-21T12:20:09;4.57;;;1.38;;
78618;SDS011;67941;52.506;5.470;2024-02-21T12:22:39;2.80;;;1.35;;
78618;SDS011;67941;52.506;5.470;2024-02-21T12:25:18;3.88;;;1.25;;
78618;SDS011;67941;52.506;5.470;2024-02-21T12:27:48;3.58;;;1.83;;
78618;SDS011;67941;52.506;5.470;2024-02-21T12:30:17;3.83;;;2.08;;
78618;SDS011;67941;52.506;5.470;2024-02-21T12:32:47;5.63;;;1.92;;
78618;SDS011;67941;52.506;5.470;2024-02-21T12:35:16;4.30;;;1.15;;
78618;SDS011;67941;52.506;5.470;2024-02-21T12:37:45;4.97;;;1.80;;
78618;SDS011;67941;52.506;5.470;2024-02-21T12:40:14;7.40;;;2.17;;
78618;SDS011;67941;52.506;5.470;2024-02-21T12:42:45;4.00;;;1.70;;
78618;SDS011;67941;52.506;5.470;2024-02-21T12:45:14;3.95;;;1.40;;
78618;SDS011;67941;52.506;5.470;2024-02-21T12:47:43;2.83;;;0.95;;
78618;SDS011;67941;52.506;5.470;2024-02-21T12:50:12;6.00;;;2.65;;
78618;SDS011;67941;52.506;5.470;2024-02-21T12:52:41;5.05;;;2.22;;
78618;SDS011;67941;52.506;5.470;2024-02-21T12:55:10;4.07;;;2.35;;
78618;SDS011;67941;52.506;5.470;2024-02-21T12:57:39;4.43;;;1.60;;
78618;SDS011;67941;52.506;5.470;2024-02-21T13:00:11;4.57;;;1.83;;
78618;SDS011;67941;52.506;5.470;2024-02-21T13:02:41;6.10;;;2.40;;
78618;SDS011;67941;52.506;5.470;2024-02-21T13:05:11;3.08;;;1.60;;
78618;SDS011;67941;52.506;5.470;2024-02-21T13:07:40;3.90;;;1.63;;
78618;SDS011;67941;52.506;5.470;2024-02-21T13:10:10;4.15;;;1.30;;
78618;SDS011;67941;52.506;5.470;2024-02-21T13:12:39;4.32;;;1.70;;
78618;SDS011;67941;52.506;5.470;2024-02-21T13:15:11;4.50;;;2.08;;
78618;SDS011;67941;52.506;5.470;2024-02-21T13:17:41;4.18;;;1.77;;
78618;SDS011;67941;52.506;5.470;2024-02-21T13:20:11;3.85;;;1.60;;
78618;SDS011;67941;52.506;5.470;2024-02-21T13:22:41;3.08;;;1.50;;
78618;SDS011;67941;52.506;5.470;2024-02-21T13:25:10;4.82;;;2.03;;
78618;SDS011;67941;52.506;5.470;2024-02-21T13:27:40;3.63;;;2.05;;
78618;SDS011;67941;52.506;5.470;2024-02-21T13:30:12;4.47;;;1.95;;
78618;SDS011;67941;52.506;5.470;2024-02-21T13:35:11;4.93;;;1.95;;
78618;SDS011;67941;52.506;5.470;2024-02-21T13:37:40;4.20;;;2.08;;
78618;SDS011;67941;52.506;5.470;2024-02-21T13:40:09;3.60;;;2.10;;
78618;SDS011;67941;52.506;5.470;2024-02-21T13:42:39;4.63;;;1.73;;
78618;SDS011;67941;52.506;5.470;2024-02-21T13:45:08;3.63;;;1.80;;
78618;SDS011;67941;52.506;5.470;2024-02-21T13:47:40;5.90;;;2.42;;
78618;SDS011;67941;52.506;5.470;2024-02-21T13:50:09;3.22;;;1.63;;
78618;SDS011;67941;52.506;5.470;2024-02-21T13:52:36;3.58;;;1.77;;
78618;SDS011;67941;52.506;5.470;2024-02-21T13:55:05;4.28;;;1.95;;
78618;SDS011;67941;52.506;5.470;2024-02-21T13:57:35;6.35;;;2.45;;
78618;SDS011;67941;52.506;5.470;2024-02-21T14:00:04;4.93;;;1.45;;
78618;SDS011;67941;52.506;5.470;2024-02-21T14:02:41;2.92;;;1.58;;
78618;SDS011;67941;52.506;5.470;2024-02-21T14:05:10;2.60;;;1.27;;
78618;SDS011;67941;52.506;5.470;2024-02-21T14:07:39;3.90;;;1.65;;
78618;SDS011;67941;52.506;5.470;2024-02-21T14:10:08;2.90;;;1.55;;
78618;SDS011;67941;52.506;5.470;2024-02-21T14:12:37;3.45;;;1.27;;
78618;SDS011;67941;52.506;5.470;2024-02-21T14:15:06;4.60;;;1.85;;
78618;SDS011;67941;52.506;5.470;2024-02-21T14:17:36;3.72;;;1.35;;
78618;SDS011;67941;52.506;5.470;2024-02-21T14:20:08;4.35;;;1.48;;
78618;SDS011;67941;52.506;5.470;2024-02-21T14:22:39;2.20;;;1.35;;
78618;SDS011;67941;52.506;5.470;2024-02-21T14:25:08;2.70;;;1.00;;
78618;SDS011;67941;52.506;5.470;2024-02-21T14:27:37;6.05;;;1.77;;
78618;SDS011;67941;52.506;5.470;2024-02-21T14:30:07;2.75;;;1.58;;
78618;SDS011;67941;52.506;5.470;2024-02-21T14:32:37;3.35;;;1.00;;
78618;SDS011;67941;52.506;5.470;2024-02-21T14:35:08;2.20;;;1.23;;
78618;SDS011;67941;52.506;5.470;2024-02-21T14:37:37;4.35;;;1.58;;
78618;SDS011;67941;52.506;5.470;2024-02-21T14:40:06;5.40;;;1.27;;
78618;SDS011;67941;52.506;5.470;2024-02-21T14:42:36;2.40;;;1.10;;
78618;SDS011;67941;52.506;5.470;2024-02-21T14:45:05;1.63;;;0.63;;
78618;SDS011;67941;52.506;5.470;2024-02-21T14:47:35;1.27;;;0.85;;
78618;SDS011;67941;52.506;5.470;2024-02-21T14:50:04;3.97;;;1.70;;
78618;SDS011;67941;52.506;5.470;2024-02-21T14:52:36;2.10;;;1.35;;
78618;SDS011;67941;52.506;5.470;2024-02-21T14:55:05;6.88;;;1.63;;
78618;SDS011;67941;52.506;5.470;2024-02-21T14:57:38;4.82;;;1.80;;
78618;SDS011;67941;52.506;5.470;2024-02-21T15:00:08;3.00;;;1.35;;
78618;SDS011;67941;52.506;5.470;2024-02-21T15:02:38;3.13;;;1.63;;
78618;SDS011;67941;52.506;5.470;2024-02-21T15:05:10;3.80;;;1.83;;
78618;SDS011;67941;52.506;5.470;2024-02-21T15:07:39;1.80;;;1.10;;
78618;SDS011;67941;52.506;5.470;2024-02-21T15:10:08;3.10;;;1.52;;
78618;SDS011;67941;52.506;5.470;2024-02-21T15:12:37;3.67;;;1.80;;